»·PEaware :: UAL1022 KCPR-KJAC

UAL1022 :: KCPR-KJAC

FLIGHT INFORMATION

Flight Status: Arrived
Operator:
United Airlines
More flights by this operator :: More flights under this callsign
Pilot: Martin A. (6413)
Aircraft: BOEING 737-200
(B732)
More flights by this aircraft type
Origin: KCPR Natrona Co Intl
United States
Destination: KJAC Jackson Hole
United States
More flights between these airports :: More routes between these airports
Route: +BOY DNW
File this flight plan on PilotEdge
Remarks:
Altitude:
(Current/Filed)
24,000ft
Speed:
(Current/Filed)
450kts
Departed: 01-Feb-18 07:48 PM
Arrived: 01-Feb-18 08:35 PM
Distance/Time
Traveled:
191nm/0:47
Distance/Time
To Go:
Arrived

Flight Plot

Page will automatically refresh every two minutes.

Flight plan parsing failed; only flown route is shown


Map Options




Map Legend


Flown Route
Filed Route
Departure Airport
Arrival Airport
Navaid (VOR, NDB)
Fix

Horizontal Profiles

Position Reports

Time Latitude Longitude Heading Altitude Ground
Speed
01-Feb-18 19:00 42.896892 -106.465677 43 5328ft 0kts
01-Feb-18 19:01 42.896892 -106.465677 43 5328ft 0kts
01-Feb-18 19:02 42.896892 -106.465677 43 5328ft 0kts
01-Feb-18 19:03 42.896892 -106.465677 43 5328ft 0kts
01-Feb-18 19:04 42.896892 -106.465677 43 5328ft 0kts
01-Feb-18 19:05 42.896892 -106.465677 43 5328ft 0kts
01-Feb-18 19:06 42.896892 -106.465677 43 5328ft 0kts
01-Feb-18 19:07 42.896892 -106.465677 43 5328ft 0kts
01-Feb-18 19:08 42.896892 -106.465677 43 5328ft 0kts
01-Feb-18 19:09 42.896892 -106.465677 43 5328ft 0kts
01-Feb-18 19:10 42.896892 -106.465677 43 5328ft 0kts
01-Feb-18 19:11 42.896892 -106.465677 43 5328ft 0kts
01-Feb-18 19:12 42.896892 -106.465677 43 5328ft 0kts
01-Feb-18 19:13 42.896892 -106.465677 43 5328ft 0kts
01-Feb-18 19:14 42.896892 -106.465677 43 5328ft 0kts
01-Feb-18 19:15 42.896892 -106.465677 43 5328ft 0kts
01-Feb-18 19:16 42.896892 -106.465677 43 5328ft 0kts
01-Feb-18 19:17 42.896892 -106.465677 43 5328ft 0kts
01-Feb-18 19:18 42.896892 -106.465677 43 5328ft 0kts
01-Feb-18 19:19 42.896892 -106.465677 43 5328ft 0kts
01-Feb-18 19:20 42.896892 -106.465677 43 5328ft 0kts
01-Feb-18 19:21 42.896892 -106.465677 43 5328ft 0kts
01-Feb-18 19:22 42.896892 -106.465677 43 5328ft 0kts
01-Feb-18 19:23 42.896892 -106.465677 43 5328ft 0kts
01-Feb-18 19:24 42.896892 -106.465677 43 5328ft 0kts
01-Feb-18 19:25 42.896892 -106.465677 43 5328ft 0kts
01-Feb-18 19:26 42.896892 -106.465677 43 5328ft 0kts
01-Feb-18 19:27 42.896892 -106.465677 43 5328ft 0kts
01-Feb-18 19:28 42.896892 -106.465677 43 5328ft 0kts
01-Feb-18 19:29 42.896892 -106.465677 43 5328ft 0kts
01-Feb-18 19:30 42.896892 -106.465677 43 5328ft 0kts
01-Feb-18 19:31 42.896892 -106.465677 43 5328ft 0kts
01-Feb-18 19:32 42.896892 -106.465677 43 5328ft 0kts
01-Feb-18 19:33 42.896892 -106.465677 43 5328ft 0kts
01-Feb-18 19:34 42.896892 -106.465677 43 5328ft 0kts
01-Feb-18 19:35 42.896892 -106.465677 43 5328ft 0kts
01-Feb-18 19:36 42.896892 -106.465677 43 5328ft 0kts
01-Feb-18 19:37 42.896892 -106.465677 43 5328ft 0kts
01-Feb-18 19:38 42.896892 -106.465676 43 5328ft 0kts
01-Feb-18 19:39 42.896892 -106.465676 43 5328ft 0kts
01-Feb-18 19:40 42.896892 -106.465676 43 5328ft 0kts
01-Feb-18 19:41 42.897046 -106.465574 14 5328ft 4kts
01-Feb-18 19:42 42.897663 -106.465894 2 5329ft 8kts
01-Feb-18 19:43 42.901281 -106.462164 48 5330ft 20kts
01-Feb-18 19:44 42.905219 -106.456933 45 5334ft 19kts
01-Feb-18 19:45 42.908691 -106.452426 47 5335ft 18kts
01-Feb-18 19:46 42.911448 -106.448860 49 5326ft 0kts
01-Feb-18 19:47 42.912004 -106.448138 42 5323ft 12kts
01-Feb-18 19:48 42.912622 -106.448122 319 5323ft 0kts
01-Feb-18 19:49 42.912622 -106.448122 319 5323ft 0kts
01-Feb-18 19:53 42.913285 -106.449175 232 5325ft 3kts
01-Feb-18 19:54 42.891265 -106.476839 226 6175ft 172kts
01-Feb-18 19:55 42.851889 -106.520357 225 8581ft 209kts
01-Feb-18 19:56 42.801811 -106.574175 225 10349ft 277kts
01-Feb-18 19:57 42.743928 -106.636309 225 13522ft 278kts
01-Feb-18 19:58 42.717857 -106.726439 295 15265ft 293kts
01-Feb-18 19:59 42.767202 -106.814120 303 17666ft 303kts
01-Feb-18 20:00 42.814821 -106.907668 302 19621ft 312kts
01-Feb-18 20:01 42.862452 -107.005980 301 21307ft 321kts
01-Feb-18 20:02 42.910497 -107.106872 302 22838ft 326kts
01-Feb-18 20:03 42.959212 -107.209955 302 23984ft 335kts
01-Feb-18 20:04 43.010781 -107.319806 303 23992ft 367kts
01-Feb-18 20:05 43.066257 -107.437837 303 23983ft 380kts
01-Feb-18 20:06 43.120739 -107.553589 303 24206ft 377kts
01-Feb-18 20:07 43.175517 -107.670645 302 24212ft 380kts
01-Feb-18 20:08 43.230873 -107.791917 302 24202ft 384kts
01-Feb-18 20:09 43.286165 -107.912051 302 24200ft 379kts
01-Feb-18 20:10 43.340523 -108.030387 302 24192ft 371kts
01-Feb-18 20:11 43.394482 -108.148335 302 24193ft 366kts
01-Feb-18 20:12 43.447059 -108.263772 302 24188ft 361kts
01-Feb-18 20:13 43.485021 -108.386449 288 24186ft 361kts
01-Feb-18 20:14 43.509556 -108.516977 288 24186ft 359kts
01-Feb-18 20:15 43.533413 -108.646245 288 24185ft 357kts
01-Feb-18 20:16 43.555412 -108.769687 287 24192ft 357kts
01-Feb-18 20:17 43.578495 -108.897410 287 24181ft 356kts
01-Feb-18 20:18 43.601620 -109.025197 286 24162ft 356kts
01-Feb-18 20:19 43.624851 -109.154554 284 24147ft 357kts
01-Feb-18 20:20 43.647749 -109.283383 284 24143ft 359kts
01-Feb-18 20:21 43.670561 -109.412914 284 24142ft 360kts
01-Feb-18 20:22 43.693035 -109.541447 284 24103ft 348kts
01-Feb-18 20:23 43.713653 -109.660457 282 22531ft 339kts
01-Feb-18 20:24 43.731073 -109.781172 285 20735ft 333kts
01-Feb-18 20:25 43.753162 -109.896618 283 17917ft 327kts
01-Feb-18 20:26 43.773584 -110.012468 282 15060ft 325kts
01-Feb-18 20:27 43.792718 -110.123981 282 14510ft 292kts
01-Feb-18 20:28 43.809728 -110.224368 282 13891ft 271kts
01-Feb-18 20:29 43.823081 -110.313217 278 13920ft 241kts
01-Feb-18 20:30 43.832120 -110.392337 278 13293ft 225kts
01-Feb-18 20:31 43.840777 -110.468216 278 12102ft 214kts
01-Feb-18 20:32 43.848854 -110.537586 278 10976ft 184kts
01-Feb-18 20:33 43.856315 -110.597977 278 11103ft 176kts
01-Feb-18 20:34 43.829078 -110.634036 198 11033ft 161kts
01-Feb-18 20:35 43.781425 -110.653756 200 10009ft 188kts
01-Feb-18 20:36 43.739237 -110.673553 201 9032ft 148kts
01-Feb-18 20:37 43.702287 -110.691867 202 8363ft 147kts
01-Feb-18 20:38 43.665553 -110.710734 202 7515ft 149kts
01-Feb-18 20:39 43.627722 -110.727708 201 6843ft 143kts
01-Feb-18 20:40 43.601591 -110.740548 199 6422ft 44kts
01-Feb-18 20:41 43.599985 -110.739757 22 6420ft 13kts
01-Feb-18 20:42 43.602975 -110.737465 109 6427ft 2kts
01-Feb-18 20:43 43.602960 -110.737409 110 6427ft 0kts
01-Feb-18 20:44 43.602960 -110.737409 110 6427ft 0kts

Navigation Log

Ident Type
Flight plan parsing failed, navigation log unavailable